Chambery, France

7:03 PM CET on February 11, 2016 (GMT +0100)
Aix-les-Bains | | Change Station
CLOSE
Current Station
Airport
Location: Chambery,
Elevation: 771 ft
Nearby Weather Stations

Elev 771 ft 45.64 °N, 5.88 °E | Updated 33 minutes ago

Light Rain
Light Rain
39 °F
Feels Like 39 °F
N
2
Wind Variable Wind from Variable

Today
High -- | Low -- °F
--% Chance of Precip.
Yesterday
High -- | Low -- °F
Precip. -- in
Pressure 29.77 in
Visibility 4.3 miles
Clouds Overcast 1400 ft
Dew Point 34 °F
Humidity 81%
Rainfall 0.00 in
Snow Depth Not available.
7:45 AM 5:56 PM
Waxing Crescent, 13% visible
METAR LFLB 111730Z AUTO VRB02KT 7000 -RA OVC014 04/01 Q1008
Pressure 29.77 in
Visibility 4.3 miles
Clouds Overcast 1400 ft
Dew Point 34 °F
Humidity 81%
Rainfall 0.00 in
Snow Depth Not available.
7:45 AM 5:56 PM
Waxing Crescent, 13% visible
METAR LFLB 111730Z AUTO VRB02KT 7000 -RA OVC014 04/01 Q1008

10-Day Weather Forecast

Almanac

Astronomy

Feb. 11, 2016 Rise Set
Actual Time
Civil Twilight
Nautical Twilight
Astronomical Twilight
Moon
Length of Visible Light
Length of Day
Tomorrow will be .
, % of the Moon is Illuminated

Today's Extremes

Country Highs Country Lows

Community

WunderPhotos

Upload Photos

1,892,121 photos uploaded!

WunderBlog® & News

Nearby

Air Quality

  Air Quality AQ Index Pollutant
Not available.

Snow Depth

Station Depth Elevation

Earthquake Activity

City Distance Mag. Time & Date
Minimum magnitude displayed is 2.5.

Coastal Water Temperatures

Place Temperature

Stations

Nearby Weather Stations

Station Location Temp. Windchill Dew Point Humidity Wind Precip. Elev Updated Type